sensor_id;sensor_type;location;lat;lon;timestamp;pressure;altitude;pressure_sealevel;temperature;humidity
23131;BME280;11734;51.046;13.778;2022-09-13T00:02:01;70495.81;;;13.63;100.00
23131;BME280;11734;51.046;13.778;2022-09-13T00:04:28;70460.19;;;13.58;100.00
23131;BME280;11734;51.046;13.778;2022-09-13T00:06:55;70438.78;;;13.42;100.00
23131;BME280;11734;51.046;13.778;2022-09-13T00:09:23;70436.47;;;13.35;100.00
23131;BME280;11734;51.046;13.778;2022-09-13T00:11:51;70444.47;;;13.31;100.00
23131;BME280;11734;51.046;13.778;2022-09-13T00:14:18;70387.94;;;13.23;100.00
23131;BME280;11734;51.046;13.778;2022-09-13T00:16:45;70411.22;;;13.23;100.00
23131;BME280;11734;51.046;13.778;2022-09-13T00:19:13;70392.44;;;13.11;100.00
23131;BME280;11734;51.046;13.778;2022-09-13T00:21:40;70413.97;;;13.04;100.00
23131;BME280;11734;51.046;13.778;2022-09-13T00:24:08;70389.25;;;13.01;100.00
23131;BME280;11734;51.046;13.778;2022-09-13T00:26:35;70373.06;;;12.99;100.00
23131;BME280;11734;51.046;13.778;2022-09-13T00:29:02;70405.78;;;12.97;100.00
23131;BME280;11734;51.046;13.778;2022-09-13T00:31:30;70343.41;;;12.85;100.00
23131;BME280;11734;51.046;13.778;2022-09-13T00:34:00;70382.03;;;12.84;100.00
23131;BME280;11734;51.046;13.778;2022-09-13T00:36:28;70379.06;;;12.86;100.00
23131;BME280;11734;51.046;13.778;2022-09-13T00:38:55;70400.19;;;12.95;100.00
23131;BME280;11734;51.046;13.778;2022-09-13T00:41:23;70390.44;;;12.98;100.00
23131;BME280;11734;51.046;13.778;2022-09-13T00:44:01;70393.38;;;13.00;100.00
23131;BME280;11734;51.046;13.778;2022-09-13T00:49:15;70376.97;;;12.91;100.00
23131;BME280;11734;51.046;13.778;2022-09-13T00:51:48;70393.44;;;12.91;100.00
23131;BME280;11734;51.046;13.778;2022-09-13T00:54:18;70406.38;;;12.98;100.00
23131;BME280;11734;51.046;13.778;2022-09-13T00:56:54;70399.59;;;12.99;100.00
23131;BME280;11734;51.046;13.778;2022-09-13T00:59:39;70373.06;;;12.99;100.00
23131;BME280;11734;51.046;13.778;2022-09-13T01:02:09;70395.78;;;12.93;100.00
23131;BME280;11734;51.046;13.778;2022-09-13T01:04:37;70375.19;;;12.89;100.00
23131;BME280;11734;51.046;13.778;2022-09-13T01:07:10;70366.72;;;12.80;100.00
23131;BME280;11734;51.046;13.778;2022-09-13T01:09:41;70375.31;;;12.75;100.00
23131;BME280;11734;51.046;13.778;2022-09-13T01:14:52;70365.94;;;12.67;100.00
23131;BME280;11734;51.046;13.778;2022-09-13T01:17:22;70362.41;;;12.64;100.00
23131;BME280;11734;51.046;13.778;2022-09-13T01:19:49;70356.25;;;12.61;100.00
23131;BME280;11734;51.046;13.778;2022-09-13T01:31:34;70346.88;;;12.53;100.00
23131;BME280;11734;51.046;13.778;2022-09-13T01:34:19;70361.31;;;12.54;100.00
23131;BME280;11734;51.046;13.778;2022-09-13T01:39:46;70316.84;;;12.55;100.00
23131;BME280;11734;51.046;13.778;2022-09-13T01:45:04;70317.75;;;12.49;100.00
23131;BME280;11734;51.046;13.778;2022-09-13T01:51:00;70353.66;;;12.52;100.00
23131;BME280;11734;51.046;13.778;2022-09-13T01:57:02;70370.69;;;12.58;100.00
23131;BME280;11734;51.046;13.778;2022-09-13T02:02:20;70323.25;;;12.65;100.00
23131;BME280;11734;51.046;13.778;2022-09-13T02:04:57;70354.78;;;12.62;100.00
23131;BME280;11734;51.046;13.778;2022-09-13T02:07:41;70333.00;;;12.57;100.00
23131;BME280;11734;51.046;13.778;2022-09-13T02:10:21;70314.75;;;12.60;100.00
23131;BME280;11734;51.046;13.778;2022-09-13T02:12:52;70336.53;;;12.60;100.00
23131;BME280;11734;51.046;13.778;2022-09-13T02:15:43;70340.09;;;12.54;100.00
23131;BME280;11734;51.046;13.778;2022-09-13T02:18:24;70356.28;;;12.57;100.00
23131;BME280;11734;51.046;13.778;2022-09-13T02:21:00;70321.81;;;12.57;100.00
23131;BME280;11734;51.046;13.778;2022-09-13T02:23:33;70298.59;;;12.53;100.00
23131;BME280;11734;51.046;13.778;2022-09-13T02:26:04;70332.44;;;12.52;100.00
23131;BME280;11734;51.046;13.778;2022-09-13T02:28:37;70330.41;;;12.53;100.00
23131;BME280;11734;51.046;13.778;2022-09-13T02:31:07;70298.38;;;12.41;100.00
23131;BME280;11734;51.046;13.778;2022-09-13T02:33:49;70337.53;;;12.41;100.00
23131;BME280;11734;51.046;13.778;2022-09-13T02:36:27;70324.03;;;12.38;100.00
23131;BME280;11734;51.046;13.778;2022-09-13T02:39:10;70328.47;;;12.35;100.00
23131;BME280;11734;51.046;13.778;2022-09-13T02:44:45;70324.59;;;12.43;100.00
23131;BME280;11734;51.046;13.778;2022-09-13T02:55:44;70325.41;;;12.51;100.00
23131;BME280;11734;51.046;13.778;2022-09-13T02:58:27;70301.25;;;12.53;100.00
23131;BME280;11734;51.046;13.778;2022-09-13T03:00:58;70304.47;;;12.53;100.00
23131;BME280;11734;51.046;13.778;2022-09-13T03:03:25;70333.94;;;12.51;100.00
23131;BME280;11734;51.046;13.778;2022-09-13T03:05:53;70304.84;;;12.47;100.00
23131;BME280;11734;51.046;13.778;2022-09-13T03:08:21;70352.50;;;12.51;100.00
23131;BME280;11734;51.046;13.778;2022-09-13T03:17:14;70305.41;;;12.47;100.00
23131;BME280;11734;51.046;13.778;2022-09-13T03:22:43;70303.63;;;12.50;100.00
23131;BME280;11734;51.046;13.778;2022-09-13T03:30:34;70300.50;;;12.36;100.00
23131;BME280;11734;51.046;13.778;2022-09-13T03:35:43;70304.31;;;12.37;100.00
23131;BME280;11734;51.046;13.778;2022-09-13T03:38:30;70327.88;;;12.35;100.00
23131;BME280;11734;51.046;13.778;2022-09-13T03:41:06;70299.91;;;12.36;100.00
23131;BME280;11734;51.046;13.778;2022-09-13T03:43:43;70282.84;;;12.35;100.00
23131;BME280;11734;51.046;13.778;2022-09-13T03:46:20;70316.66;;;12.39;100.00
23131;BME280;11734;51.046;13.778;2022-09-13T03:48:49;70352.56;;;12.42;100.00
23131;BME280;11734;51.046;13.778;2022-09-13T03:51:18;70270.06;;;12.49;100.00
23131;BME280;11734;51.046;13.778;2022-09-13T03:53:51;70323.34;;;12.51;100.00
23131;BME280;11734;51.046;13.778;2022-09-13T03:56:20;70350.97;;;12.57;100.00
23131;BME280;11734;51.046;13.778;2022-09-13T03:58:48;70330.59;;;12.64;100.00
23131;BME280;11734;51.046;13.778;2022-09-13T04:01:23;70340.06;;;12.63;100.00
23131;BME280;11734;51.046;13.778;2022-09-13T04:03:51;70320.47;;;12.44;100.00
23131;BME280;11734;51.046;13.778;2022-09-13T04:06:23;70383.00;;;12.68;100.00
23131;BME280;11734;51.046;13.778;2022-09-13T04:08:50;70365.94;;;12.67;100.00
23131;BME280;11734;51.046;13.778;2022-09-13T04:11:18;70350.03;;;12.67;100.00
23131;BME280;11734;51.046;13.778;2022-09-13T04:13:47;70345.94;;;12.64;100.00
23131;BME280;11734;51.046;13.778;2022-09-13T04:16:15;70343.59;;;12.62;100.00
23131;BME280;11734;51.046;13.778;2022-09-13T04:18:42;70311.78;;;12.62;100.00
23131;BME280;11734;51.046;13.778;2022-09-13T04:21:09;70323.59;;;12.58;100.00
23131;BME280;11734;51.046;13.778;2022-09-13T04:23:37;70308.56;;;12.57;100.00
23131;BME280;11734;51.046;13.778;2022-09-13T04:26:05;70313.59;;;12.54;100.00
23131;BME280;11734;51.046;13.778;2022-09-13T04:28:32;70336.28;;;12.53;100.00
23131;BME280;11734;51.046;13.778;2022-09-13T04:31:00;70360.69;;;12.58;100.00
23131;BME280;11734;51.046;13.778;2022-09-13T04:33:27;70368.31;;;12.60;100.00
23131;BME280;11734;51.046;13.778;2022-09-13T04:35:58;70331.84;;;12.56;100.00
23131;BME280;11734;51.046;13.778;2022-09-13T04:38:26;70314.19;;;12.55;100.00
23131;BME280;11734;51.046;13.778;2022-09-13T04:40:55;70271.22;;;12.54;100.00
23131;BME280;11734;51.046;13.778;2022-09-13T04:43:23;70322.41;;;12.57;100.00
23131;BME280;11734;51.046;13.778;2022-09-13T04:45:50;70291.34;;;12.40;100.00
23131;BME280;11734;51.046;13.778;2022-09-13T04:48:18;70325.38;;;12.55;100.00
23131;BME280;11734;51.046;13.778;2022-09-13T04:50:45;70316.56;;;12.52;100.00
23131;BME280;11734;51.046;13.778;2022-09-13T04:53:13;70302.97;;;12.59;100.00
23131;BME280;11734;51.046;13.778;2022-09-13T04:55:41;70361.25;;;12.63;100.00
23131;BME280;11734;51.046;13.778;2022-09-13T04:58:08;70330.06;;;12.59;100.00
23131;BME280;11734;51.046;13.778;2022-09-13T05:00:36;70329.47;;;12.59;100.00
23131;BME280;11734;51.046;13.778;2022-09-13T05:03:03;70338.31;;;12.57;100.00
23131;BME280;11734;51.046;13.778;2022-09-13T05:05:32;70326.81;;;12.59;100.00
23131;BME280;11734;51.046;13.778;2022-09-13T05:07:59;70340.03;;;12.68;100.00
23131;BME280;11734;51.046;13.778;2022-09-13T05:10:26;70371.50;;;12.70;100.00
23131;BME280;11734;51.046;13.778;2022-09-13T05:12:54;70357.31;;;12.76;100.00
23131;BME280;11734;51.046;13.778;2022-09-13T05:15:21;70357.56;;;12.83;100.00
23131;BME280;11734;51.046;13.778;2022-09-13T05:17:49;70371.06;;;12.90;100.00
23131;BME280;11734;51.046;13.778;2022-09-13T05:20:16;70357.22;;;12.90;100.00
23131;BME280;11734;51.046;13.778;2022-09-13T05:22:44;70379.22;;;13.02;100.00
23131;BME280;11734;51.046;13.778;2022-09-13T05:25:12;70379.19;;;13.11;100.00
23131;BME280;11734;51.046;13.778;2022-09-13T05:27:40;70409.44;;;13.21;100.00
23131;BME280;11734;51.046;13.778;2022-09-13T05:30:07;70436.19;;;13.33;100.00
23131;BME280;11734;51.046;13.778;2022-09-13T05:32:35;70411.31;;;13.43;100.00
23131;BME280;11734;51.046;13.778;2022-09-13T05:35:02;70459.09;;;13.43;100.00
23131;BME280;11734;51.046;13.778;2022-09-13T05:37:29;70441.41;;;13.46;100.00
23131;BME280;11734;51.046;13.778;2022-09-13T05:39:57;70452.47;;;13.60;100.00
23131;BME280;11734;51.046;13.778;2022-09-13T05:42:38;70476.06;;;13.62;100.00
23131;BME280;11734;51.046;13.778;2022-09-13T05:45:06;70469.81;;;13.68;100.00
23131;BME280;11734;51.046;13.778;2022-09-13T05:47:33;70486.59;;;13.72;100.00
23131;BME280;11734;51.046;13.778;2022-09-13T05:50:01;70493.31;;;13.80;100.00
23131;BME280;11734;51.046;13.778;2022-09-13T05:52:38;70502.47;;;13.81;100.00
23131;BME280;11734;51.046;13.778;2022-09-13T05:55:05;70526.59;;;13.88;100.00
23131;BME280;11734;51.046;13.778;2022-09-13T05:57:33;70503.50;;;14.00;100.00
23131;BME280;11734;51.046;13.778;2022-09-13T06:00:00;70504.63;;;14.05;100.00
23131;BME280;11734;51.046;13.778;2022-09-13T06:02:27;70486.31;;;14.08;100.00
23131;BME280;11734;51.046;13.778;2022-09-13T06:04:55;70511.09;;;14.06;100.00
23131;BME280;11734;51.046;13.778;2022-09-13T06:07:22;70535.31;;;14.04;100.00
23131;BME280;11734;51.046;13.778;2022-09-13T06:09:50;70555.69;;;14.06;100.00
23131;BME280;11734;51.046;13.778;2022-09-13T06:12:17;70539.69;;;14.10;100.00
23131;BME280;11734;51.046;13.778;2022-09-13T06:14:45;70559.16;;;14.13;100.00
23131;BME280;11734;51.046;13.778;2022-09-13T06:17:12;70498.28;;;14.21;100.00
23131;BME280;11734;51.046;13.778;2022-09-13T06:19:39;70558.75;;;14.29;100.00
23131;BME280;11734;51.046;13.778;2022-09-13T06:22:07;70599.44;;;14.41;100.00
23131;BME280;11734;51.046;13.778;2022-09-13T06:24:34;70618.47;;;14.60;100.00
23131;BME280;11734;51.046;13.778;2022-09-13T06:27:04;70645.19;;;14.81;100.00
23131;BME280;11734;51.046;13.778;2022-09-13T06:29:32;70648.84;;;15.00;100.00
23131;BME280;11734;51.046;13.778;2022-09-13T06:31:59;70713.69;;;15.24;100.00
23131;BME280;11734;51.046;13.778;2022-09-13T06:34:26;70736.31;;;15.41;100.00
23131;BME280;11734;51.046;13.778;2022-09-13T06:36:57;70743.03;;;15.49;100.00
23131;BME280;11734;51.046;13.778;2022-09-13T06:39:25;70740.97;;;15.54;100.00
23131;BME280;11734;51.046;13.778;2022-09-13T06:41:52;70751.00;;;15.53;100.00
23131;BME280;11734;51.046;13.778;2022-09-13T06:44:31;70739.69;;;15.62;100.00
23131;BME280;11734;51.046;13.778;2022-09-13T06:46:58;70769.81;;;15.70;100.00
23131;BME280;11734;51.046;13.778;2022-09-13T06:49:25;70798.97;;;15.88;100.00
23131;BME280;11734;51.046;13.778;2022-09-13T06:51:55;70842.63;;;16.07;100.00
23131;BME280;11734;51.046;13.778;2022-09-13T06:54:22;70812.53;;;16.25;100.00
23131;BME280;11734;51.046;13.778;2022-09-13T06:56:49;70867.47;;;16.40;100.00
23131;BME280;11734;51.046;13.778;2022-09-13T06:59:17;70894.66;;;16.49;100.00
23131;BME280;11734;51.046;13.778;2022-09-13T07:01:44;70901.09;;;16.60;100.00
23131;BME280;11734;51.046;13.778;2022-09-13T07:04:15;70899.22;;;16.72;100.00
23131;BME280;11734;51.046;13.778;2022-09-13T07:06:45;70933.47;;;16.83;100.00
23131;BME280;11734;51.046;13.778;2022-09-13T07:09:16;70942.25;;;16.95;100.00
23131;BME280;11734;51.046;13.778;2022-09-13T07:11:45;70960.56;;;17.06;100.00
23131;BME280;11734;51.046;13.778;2022-09-13T07:14:18;70985.00;;;17.25;100.00
23131;BME280;11734;51.046;13.778;2022-09-13T07:16:46;71000.94;;;17.34;100.00
23131;BME280;11734;51.046;13.778;2022-09-13T07:19:19;70993.50;;;17.34;100.00
23131;BME280;11734;51.046;13.778;2022-09-13T07:21:49;71053.63;;;17.47;100.00
23131;BME280;11734;51.046;13.778;2022-09-13T07:24:17;71054.53;;;17.46;100.00
23131;BME280;11734;51.046;13.778;2022-09-13T07:26:45;71013.28;;;17.44;100.00
23131;BME280;11734;51.046;13.778;2022-09-13T07:29:19;71049.69;;;17.55;100.00
23131;BME280;11734;51.046;13.778;2022-09-13T07:31:51;71064.81;;;17.61;100.00
23131;BME280;11734;51.046;13.778;2022-09-13T07:34:23;71091.34;;;17.79;100.00
23131;BME280;11734;51.046;13.778;2022-09-13T07:36:51;71101.34;;;17.88;100.00
23131;BME280;11734;51.046;13.778;2022-09-13T07:39:19;71104.50;;;17.98;100.00
23131;BME280;11734;51.046;13.778;2022-09-13T07:41:50;71146.63;;;18.06;100.00
23131;BME280;11734;51.046;13.778;2022-09-13T07:44:17;71153.69;;;18.12;100.00
23131;BME280;11734;51.046;13.778;2022-09-13T07:46:45;71086.25;;;18.12;100.00
23131;BME280;11734;51.046;13.778;2022-09-13T07:49:15;71105.66;;;18.03;100.00
23131;BME280;11734;51.046;13.778;2022-09-13T07:51:43;71111.72;;;17.90;100.00
23131;BME280;11734;51.046;13.778;2022-09-13T07:54:14;71097.00;;;17.77;100.00
23131;BME280;11734;51.046;13.778;2022-09-13T07:56:42;71039.53;;;17.65;100.00
23131;BME280;11734;51.046;13.778;2022-09-13T07:59:14;71057.69;;;17.60;100.00
23131;BME280;11734;51.046;13.778;2022-09-13T08:01:43;71027.19;;;17.50;100.00
23131;BME280;11734;51.046;13.778;2022-09-13T08:04:13;71051.53;;;17.48;100.00
23131;BME280;11734;51.046;13.778;2022-09-13T08:06:41;71001.25;;;17.32;100.00
23131;BME280;11734;51.046;13.778;2022-09-13T08:09:10;70958.03;;;17.22;100.00
23131;BME280;11734;51.046;13.778;2022-09-13T08:14:11;71003.28;;;17.06;100.00
23131;BME280;11734;51.046;13.778;2022-09-13T08:16:39;70966.28;;;16.95;100.00
23131;BME280;11734;51.046;13.778;2022-09-13T08:19:09;70926.03;;;16.88;100.00
23131;BME280;11734;51.046;13.778;2022-09-13T08:21:39;70927.56;;;16.82;100.00
23131;BME280;11734;51.046;13.778;2022-09-13T08:24:19;70934.19;;;16.74;100.00
23131;BME280;11734;51.046;13.778;2022-09-13T08:26:47;70941.91;;;16.72;100.00
23131;BME280;11734;51.046;13.778;2022-09-13T08:29:15;70916.56;;;16.84;100.00
23131;BME280;11734;51.046;13.778;2022-09-13T08:31:43;70997.13;;;16.99;100.00
23131;BME280;11734;51.046;13.778;2022-09-13T08:34:12;71026.31;;;17.17;100.00
23131;BME280;11734;51.046;13.778;2022-09-13T08:36:41;71025.28;;;17.32;100.00
23131;BME280;11734;51.046;13.778;2022-09-13T08:39:09;71046.78;;;17.48;100.00
23131;BME280;11734;51.046;13.778;2022-09-13T08:46:50;71059.13;;;17.63;100.00
23131;BME280;11734;51.046;13.778;2022-09-13T08:49:23;71090.34;;;17.60;100.00
23131;BME280;11734;51.046;13.778;2022-09-13T08:52:09;71044.34;;;17.55;100.00
23131;BME280;11734;51.046;13.778;2022-09-13T08:54:43;71048.19;;;17.61;100.00
23131;BME280;11734;51.046;13.778;2022-09-13T08:57:30;71079.84;;;17.72;100.00
23131;BME280;11734;51.046;13.778;2022-09-13T09:05:18;71135.16;;;17.94;100.00
23131;BME280;11734;51.046;13.778;2022-09-13T09:10:50;71111.72;;;17.90;100.00
23131;BME280;11734;51.046;13.778;2022-09-13T09:19:31;71135.66;;;18.04;100.00
23131;BME280;11734;51.046;13.778;2022-09-13T09:22:15;71128.19;;;18.09;100.00
23131;BME280;11734;51.046;13.778;2022-09-13T09:24:46;71152.53;;;18.11;100.00
23131;BME280;11734;51.046;13.778;2022-09-13T09:27:17;71154.22;;;18.17;100.00
23131;BME280;11734;51.046;13.778;2022-09-13T09:29:48;71164.06;;;18.14;100.00
23131;BME280;11734;51.046;13.778;2022-09-13T09:35:18;71163.03;;;18.29;100.00
23131;BME280;11734;51.046;13.778;2022-09-13T09:40:33;71244.88;;;18.54;100.00
23131;BME280;11734;51.046;13.778;2022-09-13T09:43:14;71242.88;;;18.75;100.00
23131;BME280;11734;51.046;13.778;2022-09-13T09:45:45;71262.84;;;19.01;100.00
23131;BME280;11734;51.046;13.778;2022-09-13T09:48:15;71317.50;;;19.11;100.00
23131;BME280;11734;51.046;13.778;2022-09-13T09:50:49;71318.50;;;19.30;100.00
23131;BME280;11734;51.046;13.778;2022-09-13T09:53:31;71371.88;;;19.53;100.00
23131;BME280;11734;51.046;13.778;2022-09-13T09:58:51;71461.16;;;20.20;100.00
23131;BME280;11734;51.046;13.778;2022-09-13T10:01:29;71555.28;;;20.62;100.00
23131;BME280;11734;51.046;13.778;2022-09-13T10:08:07;71996.66;;;23.12;100.00
23131;BME280;11734;51.046;13.778;2022-09-13T10:13:19;72228.50;;;24.50;93.35
23131;BME280;11734;51.046;13.778;2022-09-13T10:15:54;72247.72;;;24.52;93.00
23131;BME280;11734;51.046;13.778;2022-09-13T10:18:25;72310.00;;;24.68;91.07
23131;BME280;11734;51.046;13.778;2022-09-13T10:21:23;72267.19;;;24.82;91.41
23131;BME280;11734;51.046;13.778;2022-09-13T10:23:51;72272.31;;;24.84;87.89
23131;BME280;11734;51.046;13.778;2022-09-13T10:26:23;72301.53;;;24.75;86.59
23131;BME280;11734;51.046;13.778;2022-09-13T10:29:09;72269.22;;;24.61;89.52
23131;BME280;11734;51.046;13.778;2022-09-13T10:31:43;72195.50;;;24.24;88.40
23131;BME280;11734;51.046;13.778;2022-09-13T10:34:30;72181.19;;;24.12;91.20
23131;BME280;11734;51.046;13.778;2022-09-13T10:37:11;72166.41;;;24.20;92.24
23131;BME280;11734;51.046;13.778;2022-09-13T10:40:03;72102.44;;;23.98;88.92
23131;BME280;11734;51.046;13.778;2022-09-13T10:42:33;72155.16;;;24.06;91.86
23131;BME280;11734;51.046;13.778;2022-09-13T10:45:06;72174.56;;;24.15;90.67
23131;BME280;11734;51.046;13.778;2022-09-13T10:47:53;72186.75;;;24.28;90.46
23131;BME280;11734;51.046;13.778;2022-09-13T10:50:26;72326.50;;;25.01;84.77
23131;BME280;11734;51.046;13.778;2022-09-13T10:52:58;72474.00;;;25.98;80.24
23131;BME280;11734;51.046;13.778;2022-09-13T10:55:31;72704.34;;;26.88;77.70
23131;BME280;11734;51.046;13.778;2022-09-13T11:08:52;73053.44;;;28.49;66.70
23131;BME280;11734;51.046;13.778;2022-09-13T11:24:46;73500.84;;;30.52;50.68
23131;BME280;11734;51.046;13.778;2022-09-13T11:30:22;73018.38;;;28.52;52.72
23131;BME280;11734;51.046;13.778;2022-09-13T11:41:55;73278.44;;;29.49;46.71
23131;BME280;11734;51.046;13.778;2022-09-13T11:50:30;73102.47;;;28.75;44.28
23131;BME280;11734;51.046;13.778;2022-09-13T11:53:41;72607.31;;;26.58;50.50
23131;BME280;11734;51.046;13.778;2022-09-13T12:02:25;72401.53;;;25.39;53.62
23131;BME280;11734;51.046;13.778;2022-09-13T12:05:26;72385.56;;;25.42;56.57
23131;BME280;11734;51.046;13.778;2022-09-13T12:08:21;72564.69;;;26.15;55.08
23131;BME280;11734;51.046;13.778;2022-09-13T12:10:58;72713.72;;;26.84;51.25
23131;BME280;11734;51.046;13.778;2022-09-13T12:13:34;72711.53;;;26.94;51.98
23131;BME280;11734;51.046;13.778;2022-09-13T12:16:11;72597.84;;;26.11;52.92
23131;BME280;11734;51.046;13.778;2022-09-13T12:18:53;72450.47;;;25.46;54.05
23131;BME280;11734;51.046;13.778;2022-09-13T12:21:28;72358.34;;;25.30;55.10
23131;BME280;11734;51.046;13.778;2022-09-13T12:29:53;72432.38;;;25.49;52.16
23131;BME280;11734;51.046;13.778;2022-09-13T12:32:22;72424.25;;;25.54;53.03
23131;BME280;11734;51.046;13.778;2022-09-13T12:35:31;72403.50;;;25.52;54.37
23131;BME280;11734;51.046;13.778;2022-09-13T12:38:36;72362.97;;;25.18;53.46
23131;BME280;11734;51.046;13.778;2022-09-13T12:41:45;72413.63;;;25.31;52.36
23131;BME280;11734;51.046;13.778;2022-09-13T12:51:05;72306.66;;;25.02;53.99
23131;BME280;11734;51.046;13.778;2022-09-13T13:01:49;72154.47;;;24.14;54.46
23131;BME280;11734;51.046;13.778;2022-09-13T13:04:28;72143.03;;;23.88;55.36
23131;BME280;11734;51.046;13.778;2022-09-13T13:07:02;72196.31;;;24.31;54.83
23131;BME280;11734;51.046;13.778;2022-09-13T13:09:50;72212.38;;;24.45;54.52
23131;BME280;11734;51.046;13.778;2022-09-13T13:12:34;72153.81;;;24.18;55.02
23131;BME280;11734;51.046;13.778;2022-09-13T13:17:56;72197.34;;;24.46;55.56
23131;BME280;11734;51.046;13.778;2022-09-13T13:39:38;72077.06;;;23.87;57.64
23131;BME280;11734;51.046;13.778;2022-09-13T13:42:10;72069.50;;;23.67;57.62
23131;BME280;11734;51.046;13.778;2022-09-13T13:57:27;72078.78;;;23.68;57.99
23131;BME280;11734;51.046;13.778;2022-09-13T14:00:23;72104.09;;;23.83;57.35
23131;BME280;11734;51.046;13.778;2022-09-13T14:03:12;72013.22;;;23.31;57.46
23131;BME280;11734;51.046;13.778;2022-09-13T14:06:09;72096.56;;;23.88;59.46
23131;BME280;11734;51.046;13.778;2022-09-13T14:11:44;72134.31;;;23.92;57.72
23131;BME280;11734;51.046;13.778;2022-09-13T14:20:16;72138.88;;;24.10;57.59
23131;BME280;11734;51.046;13.778;2022-09-13T14:22:44;72061.66;;;23.40;56.42
23131;BME280;11734;51.046;13.778;2022-09-13T14:25:24;72094.75;;;23.86;56.23
23131;BME280;11734;51.046;13.778;2022-09-13T14:27:57;72100.69;;;23.66;56.33
23131;BME280;11734;51.046;13.778;2022-09-13T14:30:36;72045.91;;;23.84;55.75
23131;BME280;11734;51.046;13.778;2022-09-13T14:33:04;72065.19;;;23.77;56.55
23131;BME280;11734;51.046;13.778;2022-09-13T14:35:38;72109.22;;;23.80;56.22
23131;BME280;11734;51.046;13.778;2022-09-13T14:38:35;72116.94;;;23.87;57.09
23131;BME280;11734;51.046;13.778;2022-09-13T14:41:18;72095.47;;;23.78;57.84
23131;BME280;11734;51.046;13.778;2022-09-13T14:43:48;72093.41;;;23.74;58.56
23131;BME280;11734;51.046;13.778;2022-09-13T14:46:24;72052.94;;;23.74;59.35
23131;BME280;11734;51.046;13.778;2022-09-13T14:49:00;72060.59;;;23.60;59.46
23131;BME280;11734;51.046;13.778;2022-09-13T14:51:44;72049.53;;;23.57;59.46
23131;BME280;11734;51.046;13.778;2022-09-13T14:54:41;72005.97;;;23.38;58.96
23131;BME280;11734;51.046;13.778;2022-09-13T14:57:25;71870.00;;;22.82;59.83
23131;BME280;11734;51.046;13.778;2022-09-13T15:00:26;71897.66;;;22.74;60.44
23131;BME280;11734;51.046;13.778;2022-09-13T15:03:01;71925.44;;;23.07;61.26
23131;BME280;11734;51.046;13.778;2022-09-13T15:05:32;71960.22;;;22.99;61.07
23131;BME280;11734;51.046;13.778;2022-09-13T15:11:04;71972.34;;;23.17;62.89
23131;BME280;11734;51.046;13.778;2022-09-13T15:13:33;71926.88;;;22.85;63.28
23131;BME280;11734;51.046;13.778;2022-09-13T15:16:00;71943.41;;;23.03;63.35
23131;BME280;11734;51.046;13.778;2022-09-13T15:18:31;71954.09;;;23.13;63.12
23131;BME280;11734;51.046;13.778;2022-09-13T15:21:15;71920.63;;;23.07;64.11
23131;BME280;11734;51.046;13.778;2022-09-13T15:23:49;71946.44;;;23.01;64.10
23131;BME280;11734;51.046;13.778;2022-09-13T15:26:22;71923.63;;;23.05;64.14
23131;BME280;11734;51.046;13.778;2022-09-13T15:28:58;71937.63;;;22.85;64.48
23131;BME280;11734;51.046;13.778;2022-09-13T15:31:33;71946.59;;;22.88;65.19
23131;BME280;11734;51.046;13.778;2022-09-13T15:34:22;71932.09;;;22.98;66.17
23131;BME280;11734;51.046;13.778;2022-09-13T15:37:13;71931.19;;;23.00;65.92
23131;BME280;11734;51.046;13.778;2022-09-13T15:40:16;71954.84;;;22.99;66.36
23131;BME280;11734;51.046;13.778;2022-09-13T15:42:49;71897.56;;;22.83;67.12
23131;BME280;11734;51.046;13.778;2022-09-13T15:45:19;71901.66;;;22.91;66.66
23131;BME280;11734;51.046;13.778;2022-09-13T15:47:50;71907.09;;;22.86;66.83
23131;BME280;11734;51.046;13.778;2022-09-13T15:50:35;71895.72;;;22.86;67.08
23131;BME280;11734;51.046;13.778;2022-09-13T15:53:10;71870.78;;;22.65;67.03
23131;BME280;11734;51.046;13.778;2022-09-13T15:55:39;71906.81;;;22.84;67.33
23131;BME280;11734;51.046;13.778;2022-09-13T15:58:08;71868.91;;;22.72;66.71
23131;BME280;11734;51.046;13.778;2022-09-13T16:00:35;71881.66;;;22.85;67.63
23131;BME280;11734;51.046;13.778;2022-09-13T16:03:03;71938.84;;;22.86;68.44
23131;BME280;11734;51.046;13.778;2022-09-13T16:05:30;71869.25;;;22.70;68.86
23131;BME280;11734;51.046;13.778;2022-09-13T16:07:57;71867.63;;;22.80;68.83
23131;BME280;11734;51.046;13.778;2022-09-13T16:10:24;71888.72;;;22.66;68.41
23131;BME280;11734;51.046;13.778;2022-09-13T16:12:51;71808.25;;;22.39;69.37
23131;BME280;11734;51.046;13.778;2022-09-13T16:15:18;71813.59;;;22.14;68.87
23131;BME280;11734;51.046;13.778;2022-09-13T16:17:46;71921.53;;;22.80;69.18
23131;BME280;11734;51.046;13.778;2022-09-13T16:20:14;71903.00;;;22.78;69.25
23131;BME280;11734;51.046;13.778;2022-09-13T16:22:42;71868.94;;;22.68;69.56
23131;BME280;11734;51.046;13.778;2022-09-13T16:25:12;71872.22;;;22.73;69.62
23131;BME280;11734;51.046;13.778;2022-09-13T16:27:41;71864.13;;;22.73;69.78
23131;BME280;11734;51.046;13.778;2022-09-13T16:30:15;71870.06;;;22.78;68.77
23131;BME280;11734;51.046;13.778;2022-09-13T16:32:43;71824.19;;;22.57;68.78
23131;BME280;11734;51.046;13.778;2022-09-13T16:35:11;71881.22;;;22.71;70.25
23131;BME280;11734;51.046;13.778;2022-09-13T16:37:40;71880.97;;;22.64;69.18
23131;BME280;11734;51.046;13.778;2022-09-13T16:40:08;71830.97;;;22.65;69.79
23131;BME280;11734;51.046;13.778;2022-09-13T16:42:36;71855.91;;;22.56;70.61
23131;BME280;11734;51.046;13.778;2022-09-13T16:45:03;71821.59;;;22.48;70.58